sensor_id;sensor_type;location;lat;lon;timestamp;temperature;humidity
74792;SHT30;63319;46.046;17.802;2023-02-01T00:01:31;18.82;44.25
74792;SHT30;63319;46.046;17.802;2023-02-01T00:04:34;18.82;43.47
74792;SHT30;63319;46.046;17.802;2023-02-01T00:07:37;18.79;43.76
74792;SHT30;63319;46.046;17.802;2023-02-01T00:10:40;18.80;44.17
74792;SHT30;63319;46.046;17.802;2023-02-01T00:13:43;18.82;44.03
74792;SHT30;63319;46.046;17.802;2023-02-01T00:16:46;18.75;43.58
74792;SHT30;63319;46.046;17.802;2023-02-01T00:19:49;18.76;43.96
74792;SHT30;63319;46.046;17.802;2023-02-01T00:22:52;18.79;44.22
74792;SHT30;63319;46.046;17.802;2023-02-01T00:25:54;18.75;43.82
74792;SHT30;63319;46.046;17.802;2023-02-01T00:28:57;18.79;43.80
74792;SHT30;63319;46.046;17.802;2023-02-01T00:32:00;18.76;44.31
74792;SHT30;63319;46.046;17.802;2023-02-01T00:35:04;18.76;43.75
74792;SHT30;63319;46.046;17.802;2023-02-01T00:38:07;18.72;44.04
74792;SHT30;63319;46.046;17.802;2023-02-01T00:41:15;18.73;43.93
74792;SHT30;63319;46.046;17.802;2023-02-01T00:44:19;18.75;44.32
74792;SHT30;63319;46.046;17.802;2023-02-01T00:47:22;18.70;43.47
74792;SHT30;63319;46.046;17.802;2023-02-01T00:50:25;18.73;44.05
74792;SHT30;63319;46.046;17.802;2023-02-01T00:53:29;18.73;43.68
74792;SHT30;63319;46.046;17.802;2023-02-01T00:56:32;18.70;43.93
74792;SHT30;63319;46.046;17.802;2023-02-01T00:59:35;18.70;44.37
74792;SHT30;63319;46.046;17.802;2023-02-01T01:02:37;18.72;44.27
74792;SHT30;63319;46.046;17.802;2023-02-01T01:05:40;18.72;44.16
74792;SHT30;63319;46.046;17.802;2023-02-01T01:08:44;18.72;44.58
74792;SHT30;63319;46.046;17.802;2023-02-01T01:11:52;18.72;43.64
74792;SHT30;63319;46.046;17.802;2023-02-01T01:14:55;18.72;43.50
74792;SHT30;63319;46.046;17.802;2023-02-01T01:17:58;18.67;44.28
74792;SHT30;63319;46.046;17.802;2023-02-01T01:21:03;18.73;43.96
74792;SHT30;63319;46.046;17.802;2023-02-01T01:24:06;18.72;43.85
74792;SHT30;63319;46.046;17.802;2023-02-01T01:27:09;18.72;44.29
74792;SHT30;63319;46.046;17.802;2023-02-01T01:30:12;18.73;43.77
74792;SHT30;63319;46.046;17.802;2023-02-01T01:33:15;18.67;44.11
74792;SHT30;63319;46.046;17.802;2023-02-01T01:36:18;18.69;44.52
74792;SHT30;63319;46.046;17.802;2023-02-01T01:39:22;18.69;43.90
74792;SHT30;63319;46.046;17.802;2023-02-01T01:42:25;18.69;43.97
74792;SHT30;63319;46.046;17.802;2023-02-01T01:45:30;18.70;43.79
74792;SHT30;63319;46.046;17.802;2023-02-01T01:48:34;18.69;44.02
74792;SHT30;63319;46.046;17.802;2023-02-01T01:51:42;18.66;44.49
74792;SHT30;63319;46.046;17.802;2023-02-01T01:54:49;18.67;43.74
74792;SHT30;63319;46.046;17.802;2023-02-01T01:57:58;18.67;44.07
74792;SHT30;63319;46.046;17.802;2023-02-01T02:01:03;18.62;43.80
74792;SHT30;63319;46.046;17.802;2023-02-01T02:04:06;18.63;43.41
74792;SHT30;63319;46.046;17.802;2023-02-01T02:07:13;18.62;43.85
74792;SHT30;63319;46.046;17.802;2023-02-01T02:10:17;18.56;44.32
74792;SHT30;63319;46.046;17.802;2023-02-01T02:13:21;18.55;43.81
74792;SHT30;63319;46.046;17.802;2023-02-01T02:16:46;18.59;44.26
74792;SHT30;63319;46.046;17.802;2023-02-01T02:20:21;18.56;43.97
74792;SHT30;63319;46.046;17.802;2023-02-01T02:27:03;18.56;44.28
74792;SHT30;63319;46.046;17.802;2023-02-01T02:43:32;18.56;44.08
74792;SHT30;63319;46.046;17.802;2023-02-01T02:47:25;18.55;43.98
74792;SHT30;63319;46.046;17.802;2023-02-01T02:50:41;18.56;43.95
74792;SHT30;63319;46.046;17.802;2023-02-01T02:54:17;18.56;43.81
74792;SHT30;63319;46.046;17.802;2023-02-01T02:57:42;18.55;43.59
74792;SHT30;63319;46.046;17.802;2023-02-01T03:01:05;18.55;43.57
74792;SHT30;63319;46.046;17.802;2023-02-01T03:04:27;18.56;43.99
74792;SHT30;63319;46.046;17.802;2023-02-01T03:11:10;18.53;43.58
74792;SHT30;63319;46.046;17.802;2023-02-01T03:14:15;18.58;43.92
74792;SHT30;63319;46.046;17.802;2023-02-01T03:17:24;18.55;43.66
74792;SHT30;63319;46.046;17.802;2023-02-01T03:20:32;18.52;43.66
74792;SHT30;63319;46.046;17.802;2023-02-01T03:23:36;18.52;44.23
74792;SHT30;63319;46.046;17.802;2023-02-01T03:26:45;18.52;43.43
74792;SHT30;63319;46.046;17.802;2023-02-01T03:30:11;18.49;43.70
74792;SHT30;63319;46.046;17.802;2023-02-01T03:33:18;18.49;43.69
74792;SHT30;63319;46.046;17.802;2023-02-01T03:36:39;18.48;43.66
74792;SHT30;63319;46.046;17.802;2023-02-01T03:39:56;18.49;44.13
74792;SHT30;63319;46.046;17.802;2023-02-01T03:43:02;18.51;43.63
74792;SHT30;63319;46.046;17.802;2023-02-01T03:46:12;18.49;43.71
74792;SHT30;63319;46.046;17.802;2023-02-01T03:49:33;18.48;43.97
74792;SHT30;63319;46.046;17.802;2023-02-01T03:52:42;18.46;43.32
74792;SHT30;63319;46.046;17.802;2023-02-01T03:55:50;18.48;43.84
74792;SHT30;63319;46.046;17.802;2023-02-01T03:58:54;18.49;43.98
74792;SHT30;63319;46.046;17.802;2023-02-01T04:02:08;18.48;43.67
74792;SHT30;63319;46.046;17.802;2023-02-01T04:05:12;18.45;43.38
74792;SHT30;63319;46.046;17.802;2023-02-01T04:08:23;18.46;43.85
74792;SHT30;63319;46.046;17.802;2023-02-01T04:11:26;18.45;43.91
74792;SHT30;63319;46.046;17.802;2023-02-01T04:14:29;18.48;43.63
74792;SHT30;63319;46.046;17.802;2023-02-01T04:17:33;18.46;43.64
74792;SHT30;63319;46.046;17.802;2023-02-01T04:20:35;18.45;43.76
74792;SHT30;63319;46.046;17.802;2023-02-01T04:23:38;18.44;43.69
74792;SHT30;63319;46.046;17.802;2023-02-01T04:26:41;18.46;43.75
74792;SHT30;63319;46.046;17.802;2023-02-01T04:29:45;18.44;42.40
74792;SHT30;63319;46.046;17.802;2023-02-01T04:32:48;18.44;43.71
74792;SHT30;63319;46.046;17.802;2023-02-01T04:35:51;18.42;43.50
74792;SHT30;63319;46.046;17.802;2023-02-01T04:38:54;18.41;43.69
74792;SHT30;63319;46.046;17.802;2023-02-01T04:41:57;18.42;43.55
74792;SHT30;63319;46.046;17.802;2023-02-01T04:45:02;18.39;43.54
74792;SHT30;63319;46.046;17.802;2023-02-01T04:48:05;18.39;43.96
74792;SHT30;63319;46.046;17.802;2023-02-01T04:51:08;18.39;44.02
74792;SHT30;63319;46.046;17.802;2023-02-01T04:54:12;18.42;43.22
74792;SHT30;63319;46.046;17.802;2023-02-01T04:57:15;18.44;43.52
74792;SHT30;63319;46.046;17.802;2023-02-01T05:00:18;18.41;43.51
74792;SHT30;63319;46.046;17.802;2023-02-01T05:03:21;18.41;43.78
74792;SHT30;63319;46.046;17.802;2023-02-01T05:06:25;18.44;43.69
74792;SHT30;63319;46.046;17.802;2023-02-01T05:09:28;18.45;43.52
74792;SHT30;63319;46.046;17.802;2023-02-01T05:12:31;18.42;43.43
74792;SHT30;63319;46.046;17.802;2023-02-01T05:15:53;18.42;43.57
74792;SHT30;63319;46.046;17.802;2023-02-01T05:18:56;18.44;43.06
74792;SHT30;63319;46.046;17.802;2023-02-01T05:21:58;18.44;43.70
74792;SHT30;63319;46.046;17.802;2023-02-01T05:25:01;18.42;43.57
74792;SHT30;63319;46.046;17.802;2023-02-01T05:28:04;18.44;44.09
74792;SHT30;63319;46.046;17.802;2023-02-01T05:31:11;18.46;44.01
74792;SHT30;63319;46.046;17.802;2023-02-01T05:34:15;18.45;42.99
74792;SHT30;63319;46.046;17.802;2023-02-01T05:37:18;18.45;43.34
74792;SHT30;63319;46.046;17.802;2023-02-01T05:40:21;18.44;43.79
74792;SHT30;63319;46.046;17.802;2023-02-01T05:43:24;18.46;43.89
74792;SHT30;63319;46.046;17.802;2023-02-01T05:46:30;18.45;43.51
74792;SHT30;63319;46.046;17.802;2023-02-01T05:49:33;18.44;43.81
74792;SHT30;63319;46.046;17.802;2023-02-01T05:52:36;18.42;43.58
74792;SHT30;63319;46.046;17.802;2023-02-01T05:55:39;18.44;43.86
74792;SHT30;63319;46.046;17.802;2023-02-01T05:58:42;18.46;43.40
74792;SHT30;63319;46.046;17.802;2023-02-01T06:01:45;18.42;43.30
74792;SHT30;63319;46.046;17.802;2023-02-01T06:04:48;18.44;43.65
74792;SHT30;63319;46.046;17.802;2023-02-01T06:07:51;18.48;43.47
74792;SHT30;63319;46.046;17.802;2023-02-01T06:11:04;18.45;43.46
74792;SHT30;63319;46.046;17.802;2023-02-01T06:14:07;18.46;43.88
74792;SHT30;63319;46.046;17.802;2023-02-01T06:17:10;18.48;43.76
74792;SHT30;63319;46.046;17.802;2023-02-01T06:20:14;18.48;43.24
74792;SHT30;63319;46.046;17.802;2023-02-01T06:23:17;18.52;44.21
74792;SHT30;63319;46.046;17.802;2023-02-01T06:26:20;18.48;43.58
74792;SHT30;63319;46.046;17.802;2023-02-01T06:29:23;18.52;44.42
74792;SHT30;63319;46.046;17.802;2023-02-01T06:32:26;18.51;43.27
74792;SHT30;63319;46.046;17.802;2023-02-01T06:35:29;18.48;43.80
74792;SHT30;63319;46.046;17.802;2023-02-01T06:38:32;18.51;43.71
74792;SHT30;63319;46.046;17.802;2023-02-01T06:41:38;18.48;43.83
74792;SHT30;63319;46.046;17.802;2023-02-01T06:44:41;18.52;44.09
74792;SHT30;63319;46.046;17.802;2023-02-01T06:47:44;18.51;43.86
74792;SHT30;63319;46.046;17.802;2023-02-01T06:50:47;18.56;44.18
74792;SHT30;63319;46.046;17.802;2023-02-01T06:53:51;18.59;44.18
74792;SHT30;63319;46.046;17.802;2023-02-01T06:56:55;18.62;45.13
74792;SHT30;63319;46.046;17.802;2023-02-01T07:00:03;18.65;45.44
74792;SHT30;63319;46.046;17.802;2023-02-01T07:03:07;18.67;44.81
74792;SHT30;63319;46.046;17.802;2023-02-01T07:06:09;18.72;45.72
74792;SHT30;63319;46.046;17.802;2023-02-01T07:09:12;18.75;45.49
74792;SHT30;63319;46.046;17.802;2023-02-01T07:12:16;18.85;45.39
74792;SHT30;63319;46.046;17.802;2023-02-01T07:15:19;18.92;45.19
74792;SHT30;63319;46.046;17.802;2023-02-01T07:18:27;18.97;44.97
74792;SHT30;63319;46.046;17.802;2023-02-01T07:21:30;19.02;44.95
74792;SHT30;63319;46.046;17.802;2023-02-01T07:24:34;19.04;44.98
74792;SHT30;63319;46.046;17.802;2023-02-01T07:27:38;19.02;44.98
74792;SHT30;63319;46.046;17.802;2023-02-01T07:30:41;19.04;45.06
74792;SHT30;63319;46.046;17.802;2023-02-01T07:33:44;19.10;45.08
74792;SHT30;63319;46.046;17.802;2023-02-01T07:36:47;19.08;45.20
74792;SHT30;63319;46.046;17.802;2023-02-01T07:39:51;19.11;45.21
74792;SHT30;63319;46.046;17.802;2023-02-01T07:42:55;19.13;45.24
74792;SHT30;63319;46.046;17.802;2023-02-01T07:45:58;19.42;44.83
74792;SHT30;63319;46.046;17.802;2023-02-01T07:49:10;19.54;44.27
74792;SHT30;63319;46.046;17.802;2023-02-01T07:52:39;19.47;44.60
74792;SHT30;63319;46.046;17.802;2023-02-01T07:55:53;19.51;44.75
74792;SHT30;63319;46.046;17.802;2023-02-01T08:00:10;19.48;44.62
74792;SHT30;63319;46.046;17.802;2023-02-01T08:08:11;19.52;43.84
74792;SHT30;63319;46.046;17.802;2023-02-01T08:11:53;19.55;43.45
74792;SHT30;63319;46.046;17.802;2023-02-01T08:15:29;19.78;42.95
74792;SHT30;63319;46.046;17.802;2023-02-01T08:19:12;19.73;42.61
74792;SHT30;63319;46.046;17.802;2023-02-01T08:22:42;19.65;42.59
74792;SHT30;63319;46.046;17.802;2023-02-01T08:26:37;19.61;42.39
74792;SHT30;63319;46.046;17.802;2023-02-01T08:30:43;19.63;42.16
74792;SHT30;63319;46.046;17.802;2023-02-01T08:39:33;19.62;41.62
74792;SHT30;63319;46.046;17.802;2023-02-01T08:44:06;19.63;41.40
74792;SHT30;63319;46.046;17.802;2023-02-01T08:47:58;19.65;41.29
74792;SHT30;63319;46.046;17.802;2023-02-01T08:51:36;19.69;41.30
74792;SHT30;63319;46.046;17.802;2023-02-01T08:55:06;19.62;41.19
74792;SHT30;63319;46.046;17.802;2023-02-01T08:58:53;19.61;41.04
74792;SHT30;63319;46.046;17.802;2023-02-01T09:02:34;19.65;40.77
74792;SHT30;63319;46.046;17.802;2023-02-01T09:06:45;19.63;40.73
74792;SHT30;63319;46.046;17.802;2023-02-01T09:10:18;19.62;40.80
74792;SHT30;63319;46.046;17.802;2023-02-01T09:13:50;19.59;40.76
74792;SHT30;63319;46.046;17.802;2023-02-01T09:17:06;19.59;41.10
74792;SHT30;63319;46.046;17.802;2023-02-01T09:20:10;19.63;41.22
74792;SHT30;63319;46.046;17.802;2023-02-01T09:23:13;19.63;41.09
74792;SHT30;63319;46.046;17.802;2023-02-01T09:26:16;19.63;41.16
74792;SHT30;63319;46.046;17.802;2023-02-01T09:29:32;19.66;41.09
74792;SHT30;63319;46.046;17.802;2023-02-01T09:32:35;19.69;41.08
74792;SHT30;63319;46.046;17.802;2023-02-01T09:35:38;19.71;41.00
74792;SHT30;63319;46.046;17.802;2023-02-01T09:38:41;19.71;40.90
74792;SHT30;63319;46.046;17.802;2023-02-01T09:45:30;19.76;40.82
74792;SHT30;63319;46.046;17.802;2023-02-01T09:48:38;19.83;40.62
74792;SHT30;63319;46.046;17.802;2023-02-01T09:51:48;19.87;40.62
74792;SHT30;63319;46.046;17.802;2023-02-01T09:54:55;19.87;40.55
74792;SHT30;63319;46.046;17.802;2023-02-01T09:58:12;19.87;40.42
74792;SHT30;63319;46.046;17.802;2023-02-01T10:01:22;19.89;40.33
74792;SHT30;63319;46.046;17.802;2023-02-01T10:04:26;19.89;40.11
74792;SHT30;63319;46.046;17.802;2023-02-01T10:07:39;19.89;40.00
74792;SHT30;63319;46.046;17.802;2023-02-01T10:10:47;19.87;39.96
74792;SHT30;63319;46.046;17.802;2023-02-01T10:20:59;19.96;39.52
74792;SHT30;63319;46.046;17.802;2023-02-01T10:27:36;20.02;39.47
74792;SHT30;63319;46.046;17.802;2023-02-01T10:30:44;20.06;39.44
74792;SHT30;63319;46.046;17.802;2023-02-01T10:33:58;20.08;39.46
74792;SHT30;63319;46.046;17.802;2023-02-01T10:37:15;20.10;39.39
74792;SHT30;63319;46.046;17.802;2023-02-01T10:40:24;20.12;39.26
74792;SHT30;63319;46.046;17.802;2023-02-01T10:43:27;20.17;39.14
74792;SHT30;63319;46.046;17.802;2023-02-01T10:46:31;20.19;39.02
74792;SHT30;63319;46.046;17.802;2023-02-01T10:53:02;20.26;38.50
74792;SHT30;63319;46.046;17.802;2023-02-01T10:56:08;20.27;38.42
74792;SHT30;63319;46.046;17.802;2023-02-01T10:59:34;20.26;38.49
74792;SHT30;63319;46.046;17.802;2023-02-01T11:02:42;20.27;38.50
74792;SHT30;63319;46.046;17.802;2023-02-01T11:05:46;20.21;38.59
74792;SHT30;63319;46.046;17.802;2023-02-01T11:08:57;20.23;38.59
74792;SHT30;63319;46.046;17.802;2023-02-01T11:12:04;20.21;38.57
74792;SHT30;63319;46.046;17.802;2023-02-01T11:18:19;20.21;38.63
74792;SHT30;63319;46.046;17.802;2023-02-01T11:21:22;20.20;38.92
74792;SHT30;63319;46.046;17.802;2023-02-01T11:24:29;20.17;38.83
74792;SHT30;63319;46.046;17.802;2023-02-01T11:27:32;20.19;38.89
74792;SHT30;63319;46.046;17.802;2023-02-01T11:30:45;20.21;38.84
74792;SHT30;63319;46.046;17.802;2023-02-01T11:34:07;20.20;38.68
74792;SHT30;63319;46.046;17.802;2023-02-01T11:40:47;20.23;38.60
74792;SHT30;63319;46.046;17.802;2023-02-01T11:44:20;20.21;38.55
74792;SHT30;63319;46.046;17.802;2023-02-01T11:47:29;20.20;38.40
74792;SHT30;63319;46.046;17.802;2023-02-01T11:54:33;20.21;38.14
74792;SHT30;63319;46.046;17.802;2023-02-01T12:15:27;20.44;37.60
74792;SHT30;63319;46.046;17.802;2023-02-01T12:40:43;20.51;37.71
74792;SHT30;63319;46.046;17.802;2023-02-01T12:44:31;20.54;37.71
74792;SHT30;63319;46.046;17.802;2023-02-01T12:51:37;20.58;37.39
74792;SHT30;63319;46.046;17.802;2023-02-01T12:58:38;20.63;37.18
74792;SHT30;63319;46.046;17.802;2023-02-01T13:05:33;20.71;37.06
74792;SHT30;63319;46.046;17.802;2023-02-01T13:16:35;20.85;36.83
74792;SHT30;63319;46.046;17.802;2023-02-01T13:29:11;20.68;36.59
74792;SHT30;63319;46.046;17.802;2023-02-01T13:32:57;20.64;36.63
74792;SHT30;63319;46.046;17.802;2023-02-01T13:43:48;20.54;36.58
74792;SHT30;63319;46.046;17.802;2023-02-01T13:47:15;20.51;36.60
74792;SHT30;63319;46.046;17.802;2023-02-01T13:51:07;20.47;36.65
74792;SHT30;63319;46.046;17.802;2023-02-01T13:54:34;20.44;36.71
74792;SHT30;63319;46.046;17.802;2023-02-01T13:57:44;20.40;36.73
74792;SHT30;63319;46.046;17.802;2023-02-01T14:00:49;20.40;36.74
74792;SHT30;63319;46.046;17.802;2023-02-01T14:04:05;20.37;36.79
74792;SHT30;63319;46.046;17.802;2023-02-01T14:07:18;20.36;36.74
74792;SHT30;63319;46.046;17.802;2023-02-01T14:14:36;20.36;56.32
74792;SHT30;63319;46.046;17.802;2023-02-01T14:17:32;20.27;38.73
74792;SHT30;63319;46.046;17.802;2023-02-01T14:20:41;20.24;38.06
74792;SHT30;63319;46.046;17.802;2023-02-01T14:23:59;20.24;39.14
74792;SHT30;63319;46.046;17.802;2023-02-01T14:30:19;20.26;41.71
74792;SHT30;63319;46.046;17.802;2023-02-01T14:33:24;20.24;41.73
74792;SHT30;63319;46.046;17.802;2023-02-01T14:36:59;20.26;42.63
74792;SHT30;63319;46.046;17.802;2023-02-01T14:40:16;20.24;42.66
74792;SHT30;63319;46.046;17.802;2023-02-01T14:53:40;20.23;42.37
74792;SHT30;63319;46.046;17.802;2023-02-01T14:56:46;20.23;42.28
74792;SHT30;63319;46.046;17.802;2023-02-01T14:59:49;20.24;42.28
74792;SHT30;63319;46.046;17.802;2023-02-01T15:09:36;20.23;42.14
74792;SHT30;63319;46.046;17.802;2023-02-01T15:12:42;20.21;42.03
74792;SHT30;63319;46.046;17.802;2023-02-01T15:16:09;20.21;42.40
74792;SHT30;63319;46.046;17.802;2023-02-01T15:19:16;20.19;42.39
74792;SHT30;63319;46.046;17.802;2023-02-01T15:22:19;20.19;42.74
74792;SHT30;63319;46.046;17.802;2023-02-01T15:28:28;20.19;42.81
74792;SHT30;63319;46.046;17.802;2023-02-01T15:31:36;20.17;42.74
74792;SHT30;63319;46.046;17.802;2023-02-01T15:34:48;20.16;42.59
74792;SHT30;63319;46.046;17.802;2023-02-01T15:37:52;20.14;42.61
74792;SHT30;63319;46.046;17.802;2023-02-01T15:47:19;20.12;42.39
74792;SHT30;63319;46.046;17.802;2023-02-01T15:50:23;20.08;42.50
74792;SHT30;63319;46.046;17.802;2023-02-01T15:53:27;20.08;42.77
74792;SHT30;63319;46.046;17.802;2023-02-01T15:56:39;20.08;42.58
74792;SHT30;63319;46.046;17.802;2023-02-01T15:59:44;20.09;42.73
74792;SHT30;63319;46.046;17.802;2023-02-01T16:02:56;20.06;42.59
74792;SHT30;63319;46.046;17.802;2023-02-01T16:06:09;20.03;42.54
74792;SHT30;63319;46.046;17.802;2023-02-01T16:09:13;20.00;42.69
74792;SHT30;63319;46.046;17.802;2023-02-01T16:15:33;20.02;42.49
74792;SHT30;63319;46.046;17.802;2023-02-01T16:18:36;19.99;42.54
74792;SHT30;63319;46.046;17.802;2023-02-01T16:21:39;19.99;42.53
74792;SHT30;63319;46.046;17.802;2023-02-01T16:24:42;19.96;42.62
74792;SHT30;63319;46.046;17.802;2023-02-01T16:27:45;19.99;42.47
74792;SHT30;63319;46.046;17.802;2023-02-01T16:30:49;19.94;42.58
74792;SHT30;63319;46.046;17.802;2023-02-01T16:33:52;19.93;42.50
74792;SHT30;63319;46.046;17.802;2023-02-01T16:36:56;19.93;42.65
74792;SHT30;63319;46.046;17.802;2023-02-01T16:40:00;19.92;42.45
74792;SHT30;63319;46.046;17.802;2023-02-01T16:43:11;19.90;42.23
74792;SHT30;63319;46.046;17.802;2023-02-01T16:46:17;19.90;42.35
74792;SHT30;63319;46.046;17.802;2023-02-01T16:49:24;19.89;42.58
74792;SHT30;63319;46.046;17.802;2023-02-01T16:52:29;19.86;42.61
74792;SHT30;63319;46.046;17.802;2023-02-01T16:55:33;19.86;42.70
74792;SHT30;63319;46.046;17.802;2023-02-01T16:58:36;19.87;42.79
74792;SHT30;63319;46.046;17.802;2023-02-01T17:01:41;19.89;42.77
74792;SHT30;63319;46.046;17.802;2023-02-01T17:04:45;19.86;42.63
74792;SHT30;63319;46.046;17.802;2023-02-01T17:08:10;19.85;42.82
74792;SHT30;63319;46.046;17.802;2023-02-01T17:11:15;19.83;42.63
74792;SHT30;63319;46.046;17.802;2023-02-01T17:14:20;19.83;42.62
74792;SHT30;63319;46.046;17.802;2023-02-01T17:17:35;19.82;42.26
74792;SHT30;63319;46.046;17.802;2023-02-01T17:20:41;19.79;42.55
74792;SHT30;63319;46.046;17.802;2023-02-01T17:23:45;19.78;42.53
74792;SHT30;63319;46.046;17.802;2023-02-01T17:26:49;19.75;42.71
74792;SHT30;63319;46.046;17.802;2023-02-01T17:29:55;19.75;42.64
74792;SHT30;63319;46.046;17.802;2023-02-01T17:32:59;19.76;42.60
74792;SHT30;63319;46.046;17.802;2023-02-01T17:36:18;19.71;42.74
74792;SHT30;63319;46.046;17.802;2023-02-01T17:39:22;19.69;42.49
74792;SHT30;63319;46.046;17.802;2023-02-01T17:42:48;19.68;42.74
74792;SHT30;63319;46.046;17.802;2023-02-01T17:46:19;19.65;42.73
74792;SHT30;63319;46.046;17.802;2023-02-01T17:49:30;19.63;42.60
74792;SHT30;63319;46.046;17.802;2023-02-01T17:52:38;19.62;42.76
74792;SHT30;63319;46.046;17.802;2023-02-01T17:55:44;19.62;42.72
74792;SHT30;63319;46.046;17.802;2023-02-01T17:58:48;19.59;42.78
74792;SHT30;63319;46.046;17.802;2023-02-01T18:01:57;19.61;42.74
74792;SHT30;63319;46.046;17.802;2023-02-01T18:05:28;19.59;42.69
74792;SHT30;63319;46.046;17.802;2023-02-01T18:08:34;19.58;42.63
74792;SHT30;63319;46.046;17.802;2023-02-01T18:11:38;19.55;42.66
74792;SHT30;63319;46.046;17.802;2023-02-01T18:14:42;19.55;42.63
74792;SHT30;63319;46.046;17.802;2023-02-01T18:17:46;19.54;42.88
74792;SHT30;63319;46.046;17.802;2023-02-01T18:20:51;19.52;42.75
74792;SHT30;63319;46.046;17.802;2023-02-01T18:23:57;19.51;42.56
74792;SHT30;63319;46.046;17.802;2023-02-01T18:27:01;19.51;42.83
74792;SHT30;63319;46.046;17.802;2023-02-01T18:30:06;19.47;42.83
74792;SHT30;63319;46.046;17.802;2023-02-01T18:33:13;19.50;42.90
74792;SHT30;63319;46.046;17.802;2023-02-01T18:36:19;19.48;42.64
74792;SHT30;63319;46.046;17.802;2023-02-01T18:39:26;19.45;42.72
74792;SHT30;63319;46.046;17.802;2023-02-01T18:42:31;19.45;42.72
74792;SHT30;63319;46.046;17.802;2023-02-01T18:45:37;19.42;42.73
74792;SHT30;63319;46.046;17.802;2023-02-01T18:48:43;19.44;42.83
74792;SHT30;63319;46.046;17.802;2023-02-01T18:51:49;19.42;42.70
74792;SHT30;63319;46.046;17.802;2023-02-01T18:54:56;19.39;42.91
74792;SHT30;63319;46.046;17.802;2023-02-01T18:58:04;19.38;42.91
74792;SHT30;63319;46.046;17.802;2023-02-01T19:01:17;19.42;42.80
74792;SHT30;63319;46.046;17.802;2023-02-01T19:04:22;19.38;42.87
74792;SHT30;63319;46.046;17.802;2023-02-01T19:07:30;19.38;42.80
74792;SHT30;63319;46.046;17.802;2023-02-01T19:10:37;19.36;42.93
74792;SHT30;63319;46.046;17.802;2023-02-01T19:13:44;19.35;42.90
74792;SHT30;63319;46.046;17.802;2023-02-01T19:16:52;19.34;42.92
74792;SHT30;63319;46.046;17.802;2023-02-01T19:19:58;19.34;42.94
74792;SHT30;63319;46.046;17.802;2023-02-01T19:23:06;19.34;42.82
74792;SHT30;63319;46.046;17.802;2023-02-01T19:26:14;19.32;42.85
74792;SHT30;63319;46.046;17.802;2023-02-01T19:29:18;19.31;42.92
74792;SHT30;63319;46.046;17.802;2023-02-01T19:32:23;19.31;42.92
74792;SHT30;63319;46.046;17.802;2023-02-01T19:35:32;19.31;42.87
74792;SHT30;63319;46.046;17.802;2023-02-01T19:38:38;19.30;42.68
74792;SHT30;63319;46.046;17.802;2023-02-01T19:41:44;19.27;42.96
74792;SHT30;63319;46.046;17.802;2023-02-01T19:44:48;19.28;42.91
74792;SHT30;63319;46.046;17.802;2023-02-01T19:47:54;19.27;42.84
74792;SHT30;63319;46.046;17.802;2023-02-01T19:50:58;19.25;42.97
74792;SHT30;63319;46.046;17.802;2023-02-01T19:54:02;19.24;42.85
74792;SHT30;63319;46.046;17.802;2023-02-01T19:57:08;19.23;42.76
74792;SHT30;63319;46.046;17.802;2023-02-01T20:00:13;19.25;43.00
74792;SHT30;63319;46.046;17.802;2023-02-01T20:03:22;19.25;42.85
74792;SHT30;63319;46.046;17.802;2023-02-01T20:06:33;19.24;42.90
74792;SHT30;63319;46.046;17.802;2023-02-01T20:09:41;19.21;42.76
74792;SHT30;63319;46.046;17.802;2023-02-01T20:12:48;19.18;43.02
74792;SHT30;63319;46.046;17.802;2023-02-01T20:15:57;19.20;42.99
74792;SHT30;63319;46.046;17.802;2023-02-01T20:19:05;19.20;42.62
74792;SHT30;63319;46.046;17.802;2023-02-01T20:22:10;19.18;42.82
74792;SHT30;63319;46.046;17.802;2023-02-01T20:25:18;19.17;43.02
74792;SHT30;63319;46.046;17.802;2023-02-01T20:28:30;19.18;43.02
74792;SHT30;63319;46.046;17.802;2023-02-01T20:31:45;19.18;42.95
74792;SHT30;63319;46.046;17.802;2023-02-01T20:34:50;19.20;42.88
74792;SHT30;63319;46.046;17.802;2023-02-01T20:37:57;19.18;42.86
74792;SHT30;63319;46.046;17.802;2023-02-01T20:41:05;19.21;43.03
74792;SHT30;63319;46.046;17.802;2023-02-01T20:44:10;19.18;42.86
74792;SHT30;63319;46.046;17.802;2023-02-01T20:47:15;19.20;43.10
74792;SHT30;63319;46.046;17.802;2023-02-01T20:50:20;19.21;42.80
74792;SHT30;63319;46.046;17.802;2023-02-01T20:53:24;19.20;42.68
74792;SHT30;63319;46.046;17.802;2023-02-01T20:56:29;19.20;42.76
74792;SHT30;63319;46.046;17.802;2023-02-01T20:59:34;19.20;42.77
74792;SHT30;63319;46.046;17.802;2023-02-01T21:02:43;19.17;42.88
74792;SHT30;63319;46.046;17.802;2023-02-01T21:05:52;19.18;42.80
74792;SHT30;63319;46.046;17.802;2023-02-01T21:08:56;19.18;42.94
74792;SHT30;63319;46.046;17.802;2023-02-01T21:12:01;19.17;42.68
74792;SHT30;63319;46.046;17.802;2023-02-01T21:15:06;19.17;42.77
74792;SHT30;63319;46.046;17.802;2023-02-01T21:18:10;19.15;42.62
74792;SHT30;63319;46.046;17.802;2023-02-01T21:21:17;19.15;42.66
74792;SHT30;63319;46.046;17.802;2023-02-01T21:24:21;19.13;42.95
74792;SHT30;63319;46.046;17.802;2023-02-01T21:27:24;19.13;43.06
74792;SHT30;63319;46.046;17.802;2023-02-01T21:30:28;19.15;42.91
74792;SHT30;63319;46.046;17.802;2023-02-01T21:33:32;19.15;42.91
74792;SHT30;63319;46.046;17.802;2023-02-01T21:36:36;19.14;42.92
74792;SHT30;63319;46.046;17.802;2023-02-01T21:39:41;19.13;42.79
74792;SHT30;63319;46.046;17.802;2023-02-01T21:42:45;19.11;42.79
74792;SHT30;63319;46.046;17.802;2023-02-01T21:45:48;19.11;42.72
74792;SHT30;63319;46.046;17.802;2023-02-01T21:48:52;19.11;42.60
74792;SHT30;63319;46.046;17.802;2023-02-01T21:52:08;19.07;42.80
74792;SHT30;63319;46.046;17.802;2023-02-01T21:55:12;19.10;43.07
74792;SHT30;63319;46.046;17.802;2023-02-01T21:58:15;19.11;43.08
74792;SHT30;63319;46.046;17.802;2023-02-01T22:01:18;19.08;42.85
74792;SHT30;63319;46.046;17.802;2023-02-01T22:04:21;19.10;42.84
74792;SHT30;63319;46.046;17.802;2023-02-01T22:07:24;19.08;43.01
74792;SHT30;63319;46.046;17.802;2023-02-01T22:10:28;19.08;42.96
74792;SHT30;63319;46.046;17.802;2023-02-01T22:13:31;19.08;42.76
74792;SHT30;63319;46.046;17.802;2023-02-01T22:16:34;19.07;42.90
74792;SHT30;63319;46.046;17.802;2023-02-01T22:19:40;19.07;42.88
74792;SHT30;63319;46.046;17.802;2023-02-01T22:22:46;19.04;42.76
74792;SHT30;63319;46.046;17.802;2023-02-01T22:25:49;19.06;42.76
74792;SHT30;63319;46.046;17.802;2023-02-01T22:28:53;19.03;43.04